sensor_id;sensor_type;location;lat;lon;timestamp;temperature;humidity
41876;DHT22;27555;50.808;4.402;2023-04-03T00:01:27;5.10;99.90
41876;DHT22;27555;50.808;4.402;2023-04-03T00:03:53;5.10;99.90
41876;DHT22;27555;50.808;4.402;2023-04-03T00:06:19;5.10;99.90
41876;DHT22;27555;50.808;4.402;2023-04-03T00:08:45;5.10;99.90
41876;DHT22;27555;50.808;4.402;2023-04-03T00:11:10;5.10;99.90
41876;DHT22;27555;50.808;4.402;2023-04-03T00:13:37;5.00;99.90
41876;DHT22;27555;50.808;4.402;2023-04-03T00:16:03;5.00;99.90
41876;DHT22;27555;50.808;4.402;2023-04-03T00:18:29;5.00;99.90
41876;DHT22;27555;50.808;4.402;2023-04-03T00:20:55;5.10;99.90
41876;DHT22;27555;50.808;4.402;2023-04-03T00:23:20;5.00;99.90
41876;DHT22;27555;50.808;4.402;2023-04-03T00:25:46;5.10;99.90
41876;DHT22;27555;50.808;4.402;2023-04-03T00:28:12;5.10;99.90
41876;DHT22;27555;50.808;4.402;2023-04-03T00:30:38;5.10;99.90
41876;DHT22;27555;50.808;4.402;2023-04-03T00:33:03;5.10;99.90
41876;DHT22;27555;50.808;4.402;2023-04-03T00:35:29;5.20;99.90
41876;DHT22;27555;50.808;4.402;2023-04-03T00:37:55;5.10;99.90
41876;DHT22;27555;50.808;4.402;2023-04-03T00:40:23;5.10;99.90
41876;DHT22;27555;50.808;4.402;2023-04-03T00:42:54;5.10;99.90
41876;DHT22;27555;50.808;4.402;2023-04-03T00:45:29;5.20;99.90
41876;DHT22;27555;50.808;4.402;2023-04-03T00:47:56;5.20;99.90
41876;DHT22;27555;50.808;4.402;2023-04-03T00:50:22;5.20;99.90
41876;DHT22;27555;50.808;4.402;2023-04-03T00:52:48;5.20;99.90
41876;DHT22;27555;50.808;4.402;2023-04-03T00:55:14;5.20;99.90
41876;DHT22;27555;50.808;4.402;2023-04-03T00:57:40;5.20;99.90
41876;DHT22;27555;50.808;4.402;2023-04-03T01:00:11;5.20;99.90
41876;DHT22;27555;50.808;4.402;2023-04-03T01:02:37;5.20;99.90
41876;DHT22;27555;50.808;4.402;2023-04-03T01:05:04;5.20;99.90
41876;DHT22;27555;50.808;4.402;2023-04-03T01:07:30;5.10;99.90
41876;DHT22;27555;50.808;4.402;2023-04-03T01:09:58;5.20;99.90
41876;DHT22;27555;50.808;4.402;2023-04-03T01:12:31;5.20;99.90
41876;DHT22;27555;50.808;4.402;2023-04-03T01:15:00;5.20;99.90
41876;DHT22;27555;50.808;4.402;2023-04-03T01:17:28;5.00;99.90
41876;DHT22;27555;50.808;4.402;2023-04-03T01:25:47;5.10;99.90
41876;DHT22;27555;50.808;4.402;2023-04-03T01:28:16;5.10;99.90
41876;DHT22;27555;50.808;4.402;2023-04-03T01:33:37;5.10;99.90
41876;DHT22;27555;50.808;4.402;2023-04-03T01:36:03;5.00;99.90
41876;DHT22;27555;50.808;4.402;2023-04-03T01:38:29;4.90;99.90
41876;DHT22;27555;50.808;4.402;2023-04-03T01:40:56;5.00;99.90
41876;DHT22;27555;50.808;4.402;2023-04-03T01:43:22;5.10;99.90
41876;DHT22;27555;50.808;4.402;2023-04-03T01:45:47;5.00;99.90
41876;DHT22;27555;50.808;4.402;2023-04-03T01:48:14;5.00;99.90
41876;DHT22;27555;50.808;4.402;2023-04-03T01:50:41;4.80;99.90
41876;DHT22;27555;50.808;4.402;2023-04-03T01:53:07;4.70;99.90
41876;DHT22;27555;50.808;4.402;2023-04-03T01:55:32;4.80;99.90
41876;DHT22;27555;50.808;4.402;2023-04-03T01:57:58;4.80;99.90
41876;DHT22;27555;50.808;4.402;2023-04-03T02:00:24;4.90;99.90
41876;DHT22;27555;50.808;4.402;2023-04-03T02:02:49;5.00;99.90
41876;DHT22;27555;50.808;4.402;2023-04-03T02:05:15;4.80;99.90
41876;DHT22;27555;50.808;4.402;2023-04-03T02:07:41;4.80;99.90
41876;DHT22;27555;50.808;4.402;2023-04-03T02:10:07;4.90;99.90
41876;DHT22;27555;50.808;4.402;2023-04-03T02:12:32;4.90;99.90
41876;DHT22;27555;50.808;4.402;2023-04-03T02:14:58;4.80;99.90
41876;DHT22;27555;50.808;4.402;2023-04-03T02:17:24;4.90;99.90
41876;DHT22;27555;50.808;4.402;2023-04-03T02:19:49;4.90;99.90
41876;DHT22;27555;50.808;4.402;2023-04-03T02:22:15;4.90;99.90
41876;DHT22;27555;50.808;4.402;2023-04-03T02:24:41;4.70;99.90
41876;DHT22;27555;50.808;4.402;2023-04-03T02:27:07;4.60;99.90
41876;DHT22;27555;50.808;4.402;2023-04-03T02:29:32;4.60;99.90
41876;DHT22;27555;50.808;4.402;2023-04-03T02:31:58;4.60;99.90
41876;DHT22;27555;50.808;4.402;2023-04-03T02:34:24;4.60;99.90
41876;DHT22;27555;50.808;4.402;2023-04-03T02:36:49;4.60;99.90
41876;DHT22;27555;50.808;4.402;2023-04-03T02:39:16;4.70;99.90
41876;DHT22;27555;50.808;4.402;2023-04-03T02:41:41;4.60;99.90
41876;DHT22;27555;50.808;4.402;2023-04-03T02:44:09;4.40;99.90
41876;DHT22;27555;50.808;4.402;2023-04-03T02:46:36;4.20;99.90
41876;DHT22;27555;50.808;4.402;2023-04-03T02:49:02;4.10;99.90
41876;DHT22;27555;50.808;4.402;2023-04-03T02:51:28;4.10;99.90
41876;DHT22;27555;50.808;4.402;2023-04-03T02:53:54;4.20;99.90
41876;DHT22;27555;50.808;4.402;2023-04-03T02:56:19;4.40;99.90
41876;DHT22;27555;50.808;4.402;2023-04-03T02:58:45;4.50;99.90
41876;DHT22;27555;50.808;4.402;2023-04-03T03:01:11;4.50;99.90
41876;DHT22;27555;50.808;4.402;2023-04-03T03:03:37;4.60;99.90
41876;DHT22;27555;50.808;4.402;2023-04-03T03:06:05;4.70;99.90
41876;DHT22;27555;50.808;4.402;2023-04-03T03:08:31;4.70;99.90
41876;DHT22;27555;50.808;4.402;2023-04-03T03:10:57;4.60;99.90
41876;DHT22;27555;50.808;4.402;2023-04-03T03:13:23;4.60;99.90
41876;DHT22;27555;50.808;4.402;2023-04-03T03:15:49;4.50;99.90
41876;DHT22;27555;50.808;4.402;2023-04-03T03:18:14;4.50;99.90
41876;DHT22;27555;50.808;4.402;2023-04-03T03:20:40;4.50;99.90
41876;DHT22;27555;50.808;4.402;2023-04-03T03:23:06;4.50;99.90
41876;DHT22;27555;50.808;4.402;2023-04-03T03:25:31;4.40;99.90
41876;DHT22;27555;50.808;4.402;2023-04-03T03:27:57;4.40;99.90
41876;DHT22;27555;50.808;4.402;2023-04-03T03:30:23;4.40;99.90
41876;DHT22;27555;50.808;4.402;2023-04-03T03:32:48;4.40;99.90
41876;DHT22;27555;50.808;4.402;2023-04-03T03:35:14;4.30;99.90
41876;DHT22;27555;50.808;4.402;2023-04-03T03:37:40;4.30;99.90
41876;DHT22;27555;50.808;4.402;2023-04-03T03:40:06;4.30;99.90
41876;DHT22;27555;50.808;4.402;2023-04-03T03:42:31;4.30;99.90
41876;DHT22;27555;50.808;4.402;2023-04-03T03:44:57;4.30;99.90
41876;DHT22;27555;50.808;4.402;2023-04-03T03:47:23;4.40;99.90
41876;DHT22;27555;50.808;4.402;2023-04-03T03:49:48;4.20;99.90
41876;DHT22;27555;50.808;4.402;2023-04-03T03:52:14;4.20;99.90
41876;DHT22;27555;50.808;4.402;2023-04-03T03:54:39;4.10;99.90
41876;DHT22;27555;50.808;4.402;2023-04-03T03:57:05;4.10;99.90
41876;DHT22;27555;50.808;4.402;2023-04-03T03:59:31;4.10;99.90
41876;DHT22;27555;50.808;4.402;2023-04-03T04:01:56;4.00;99.90
41876;DHT22;27555;50.808;4.402;2023-04-03T04:04:22;4.00;99.90
41876;DHT22;27555;50.808;4.402;2023-04-03T04:06:47;3.90;99.90
41876;DHT22;27555;50.808;4.402;2023-04-03T04:09:13;3.90;99.90
41876;DHT22;27555;50.808;4.402;2023-04-03T04:11:39;3.90;99.90
41876;DHT22;27555;50.808;4.402;2023-04-03T04:14:06;3.90;99.90
41876;DHT22;27555;50.808;4.402;2023-04-03T04:16:32;3.80;99.90
41876;DHT22;27555;50.808;4.402;2023-04-03T04:18:57;3.90;99.90
41876;DHT22;27555;50.808;4.402;2023-04-03T04:21:23;3.80;99.90
41876;DHT22;27555;50.808;4.402;2023-04-03T04:23:48;3.80;99.90
41876;DHT22;27555;50.808;4.402;2023-04-03T04:26:14;3.80;99.90
41876;DHT22;27555;50.808;4.402;2023-04-03T04:28:40;3.70;99.90
41876;DHT22;27555;50.808;4.402;2023-04-03T04:31:05;3.80;99.90
41876;DHT22;27555;50.808;4.402;2023-04-03T04:33:31;3.80;99.90
41876;DHT22;27555;50.808;4.402;2023-04-03T04:35:56;3.80;99.90
41876;DHT22;27555;50.808;4.402;2023-04-03T04:38:22;3.80;99.90
41876;DHT22;27555;50.808;4.402;2023-04-03T04:40:48;3.80;99.90
41876;DHT22;27555;50.808;4.402;2023-04-03T04:43:14;3.80;99.90
41876;DHT22;27555;50.808;4.402;2023-04-03T04:45:41;3.70;99.90
41876;DHT22;27555;50.808;4.402;2023-04-03T04:48:07;3.70;99.90
41876;DHT22;27555;50.808;4.402;2023-04-03T04:50:32;3.60;99.90
41876;DHT22;27555;50.808;4.402;2023-04-03T04:52:58;3.60;99.90
41876;DHT22;27555;50.808;4.402;2023-04-03T04:55:23;3.70;99.90
41876;DHT22;27555;50.808;4.402;2023-04-03T04:57:49;3.80;99.90
41876;DHT22;27555;50.808;4.402;2023-04-03T05:00:15;3.90;99.90
41876;DHT22;27555;50.808;4.402;2023-04-03T05:02:41;3.90;99.90
41876;DHT22;27555;50.808;4.402;2023-04-03T05:05:07;3.90;99.90
41876;DHT22;27555;50.808;4.402;2023-04-03T05:07:33;3.80;99.90
41876;DHT22;27555;50.808;4.402;2023-04-03T05:09:58;3.90;99.90
41876;DHT22;27555;50.808;4.402;2023-04-03T05:12:24;3.90;99.90
41876;DHT22;27555;50.808;4.402;2023-04-03T05:14:49;3.90;99.90
41876;DHT22;27555;50.808;4.402;2023-04-03T05:17:15;3.80;99.90
41876;DHT22;27555;50.808;4.402;2023-04-03T05:19:41;3.80;99.90
41876;DHT22;27555;50.808;4.402;2023-04-03T05:22:06;3.80;99.90
41876;DHT22;27555;50.808;4.402;2023-04-03T05:24:32;3.90;99.90
41876;DHT22;27555;50.808;4.402;2023-04-03T05:26:58;3.80;99.90
41876;DHT22;27555;50.808;4.402;2023-04-03T05:29:24;3.80;99.90
41876;DHT22;27555;50.808;4.402;2023-04-03T05:31:50;3.90;99.90
41876;DHT22;27555;50.808;4.402;2023-04-03T05:34:16;3.90;99.90
41876;DHT22;27555;50.808;4.402;2023-04-03T05:36:41;3.80;99.90
41876;DHT22;27555;50.808;4.402;2023-04-03T05:39:07;3.90;99.90
41876;DHT22;27555;50.808;4.402;2023-04-03T05:41:33;3.80;99.90
41876;DHT22;27555;50.808;4.402;2023-04-03T05:43:59;3.50;99.90
41876;DHT22;27555;50.808;4.402;2023-04-03T05:46:25;3.30;99.90
41876;DHT22;27555;50.808;4.402;2023-04-03T05:48:50;3.30;99.90
41876;DHT22;27555;50.808;4.402;2023-04-03T05:51:23;3.30;99.90
41876;DHT22;27555;50.808;4.402;2023-04-03T05:53:55;3.60;99.90
41876;DHT22;27555;50.808;4.402;2023-04-03T05:56:23;3.90;99.90
41876;DHT22;27555;50.808;4.402;2023-04-03T05:58:49;4.00;99.90
41876;DHT22;27555;50.808;4.402;2023-04-03T06:01:14;4.10;99.90
41876;DHT22;27555;50.808;4.402;2023-04-03T06:03:41;4.20;99.90
41876;DHT22;27555;50.808;4.402;2023-04-03T06:06:07;4.20;99.90
41876;DHT22;27555;50.808;4.402;2023-04-03T06:08:33;4.20;99.90
41876;DHT22;27555;50.808;4.402;2023-04-03T06:11:00;4.20;99.90
41876;DHT22;27555;50.808;4.402;2023-04-03T06:13:27;4.30;99.90
41876;DHT22;27555;50.808;4.402;2023-04-03T06:15:52;4.30;99.90
41876;DHT22;27555;50.808;4.402;2023-04-03T06:18:18;4.40;99.90
41876;DHT22;27555;50.808;4.402;2023-04-03T06:20:44;4.30;99.90
41876;DHT22;27555;50.808;4.402;2023-04-03T06:23:09;3.90;99.90
41876;DHT22;27555;50.808;4.402;2023-04-03T06:25:35;3.80;99.90
41876;DHT22;27555;50.808;4.402;2023-04-03T06:28:01;3.90;99.90
41876;DHT22;27555;50.808;4.402;2023-04-03T06:30:27;4.10;99.90
41876;DHT22;27555;50.808;4.402;2023-04-03T06:32:52;4.40;99.90
41876;DHT22;27555;50.808;4.402;2023-04-03T06:35:18;4.60;99.90
41876;DHT22;27555;50.808;4.402;2023-04-03T06:37:43;4.80;99.90
41876;DHT22;27555;50.808;4.402;2023-04-03T06:40:18;4.70;99.90
41876;DHT22;27555;50.808;4.402;2023-04-03T06:42:46;4.60;99.90
41876;DHT22;27555;50.808;4.402;2023-04-03T06:45:12;4.60;99.90
41876;DHT22;27555;50.808;4.402;2023-04-03T06:47:37;4.60;99.90
41876;DHT22;27555;50.808;4.402;2023-04-03T06:50:03;4.60;99.90
41876;DHT22;27555;50.808;4.402;2023-04-03T06:52:29;4.80;99.90
41876;DHT22;27555;50.808;4.402;2023-04-03T06:54:54;5.00;99.90
41876;DHT22;27555;50.808;4.402;2023-04-03T06:57:23;5.40;99.90
41876;DHT22;27555;50.808;4.402;2023-04-03T06:59:49;5.50;99.90
41876;DHT22;27555;50.808;4.402;2023-04-03T07:02:15;5.30;99.90
41876;DHT22;27555;50.808;4.402;2023-04-03T07:04:41;5.50;99.90
41876;DHT22;27555;50.808;4.402;2023-04-03T07:07:06;5.30;99.90
41876;DHT22;27555;50.808;4.402;2023-04-03T07:09:33;5.50;99.90
41876;DHT22;27555;50.808;4.402;2023-04-03T07:11:58;5.50;99.90
41876;DHT22;27555;50.808;4.402;2023-04-03T07:14:24;5.70;99.90
41876;DHT22;27555;50.808;4.402;2023-04-03T07:16:49;5.90;99.90
41876;DHT22;27555;50.808;4.402;2023-04-03T07:19:15;6.10;99.90
41876;DHT22;27555;50.808;4.402;2023-04-03T07:21:41;6.20;99.90
41876;DHT22;27555;50.808;4.402;2023-04-03T07:24:08;6.90;99.90
41876;DHT22;27555;50.808;4.402;2023-04-03T07:26:34;8.20;99.90
41876;DHT22;27555;50.808;4.402;2023-04-03T07:28:59;9.00;99.60
41876;DHT22;27555;50.808;4.402;2023-04-03T07:31:25;9.80;98.80
41876;DHT22;27555;50.808;4.402;2023-04-03T07:33:50;10.10;97.00
41876;DHT22;27555;50.808;4.402;2023-04-03T07:36:19;10.30;97.20
41876;DHT22;27555;50.808;4.402;2023-04-03T07:38:45;11.40;96.60
41876;DHT22;27555;50.808;4.402;2023-04-03T07:41:18;12.10;95.20
41876;DHT22;27555;50.808;4.402;2023-04-03T07:43:45;12.60;93.70
41876;DHT22;27555;50.808;4.402;2023-04-03T07:46:12;13.10;94.10
41876;DHT22;27555;50.808;4.402;2023-04-03T07:48:38;13.80;92.30
41876;DHT22;27555;50.808;4.402;2023-04-03T07:51:04;14.80;91.90
41876;DHT22;27555;50.808;4.402;2023-04-03T07:53:30;14.90;91.00
41876;DHT22;27555;50.808;4.402;2023-04-03T07:55:59;15.70;88.80
41876;DHT22;27555;50.808;4.402;2023-04-03T07:58:25;16.00;89.10
41876;DHT22;27555;50.808;4.402;2023-04-03T08:00:51;16.30;87.60
41876;DHT22;27555;50.808;4.402;2023-04-03T08:03:17;16.40;87.20
41876;DHT22;27555;50.808;4.402;2023-04-03T08:05:44;17.10;85.60
41876;DHT22;27555;50.808;4.402;2023-04-03T08:08:12;17.20;84.00
41876;DHT22;27555;50.808;4.402;2023-04-03T08:10:38;17.30;84.00
41876;DHT22;27555;50.808;4.402;2023-04-03T08:13:05;17.40;83.50
41876;DHT22;27555;50.808;4.402;2023-04-03T08:15:31;15.90;82.90
41876;DHT22;27555;50.808;4.402;2023-04-03T08:17:58;16.00;84.00
41876;DHT22;27555;50.808;4.402;2023-04-03T08:20:23;16.00;84.40
41876;DHT22;27555;50.808;4.402;2023-04-03T08:22:49;16.80;82.80
41876;DHT22;27555;50.808;4.402;2023-04-03T08:25:15;16.80;81.90
41876;DHT22;27555;50.808;4.402;2023-04-03T08:27:40;16.40;82.60
41876;DHT22;27555;50.808;4.402;2023-04-03T08:30:06;17.20;81.00
41876;DHT22;27555;50.808;4.402;2023-04-03T08:32:33;16.60;81.70
41876;DHT22;27555;50.808;4.402;2023-04-03T08:35:00;17.30;81.80
41876;DHT22;27555;50.808;4.402;2023-04-03T08:37:25;17.30;80.70
41876;DHT22;27555;50.808;4.402;2023-04-03T08:39:51;17.30;80.70
41876;DHT22;27555;50.808;4.402;2023-04-03T08:48:14;17.80;80.00
41876;DHT22;27555;50.808;4.402;2023-04-03T08:50:47;17.20;80.70
41876;DHT22;27555;50.808;4.402;2023-04-03T08:53:17;16.60;81.40
41876;DHT22;27555;50.808;4.402;2023-04-03T08:55:47;16.20;81.70
41876;DHT22;27555;50.808;4.402;2023-04-03T08:58:26;15.70;82.40
41876;DHT22;27555;50.808;4.402;2023-04-03T09:01:12;15.70;83.30
41876;DHT22;27555;50.808;4.402;2023-04-03T09:03:41;16.10;81.90
41876;DHT22;27555;50.808;4.402;2023-04-03T09:06:13;16.30;81.50
41876;DHT22;27555;50.808;4.402;2023-04-03T09:14:26;16.90;79.80
41876;DHT22;27555;50.808;4.402;2023-04-03T09:17:00;17.40;79.70
41876;DHT22;27555;50.808;4.402;2023-04-03T09:22:43;18.40;78.10
41876;DHT22;27555;50.808;4.402;2023-04-03T09:24:46;17.70;77.30
41876;DHT22;27555;50.808;4.402;2023-04-03T09:27:12;17.60;77.90
41876;DHT22;27555;50.808;4.402;2023-04-03T09:29:41;17.90;76.80
41876;DHT22;27555;50.808;4.402;2023-04-03T09:34:59;18.80;75.80
41876;DHT22;27555;50.808;4.402;2023-04-03T09:40:04;18.40;76.40
41876;DHT22;27555;50.808;4.402;2023-04-03T09:42:30;19.20;76.10
41876;DHT22;27555;50.808;4.402;2023-04-03T09:45:18;19.70;74.60
41876;DHT22;27555;50.808;4.402;2023-04-03T09:47:47;18.90;73.70
41876;DHT22;27555;50.808;4.402;2023-04-03T09:52:42;17.30;76.60
41876;DHT22;27555;50.808;4.402;2023-04-03T09:55:28;17.50;76.50
41876;DHT22;27555;50.808;4.402;2023-04-03T09:58:00;18.40;75.50
41876;DHT22;27555;50.808;4.402;2023-04-03T10:00:38;18.80;74.10
41876;DHT22;27555;50.808;4.402;2023-04-03T10:03:25;19.20;73.70
41876;DHT22;27555;50.808;4.402;2023-04-03T10:05:52;18.00;74.80
41876;DHT22;27555;50.808;4.402;2023-04-03T10:08:26;18.10;74.60
41876;DHT22;27555;50.808;4.402;2023-04-03T10:11:11;18.50;73.60
41876;DHT22;27555;50.808;4.402;2023-04-03T10:13:53;18.10;73.90
41876;DHT22;27555;50.808;4.402;2023-04-03T10:16:29;17.90;74.10
41876;DHT22;27555;50.808;4.402;2023-04-03T10:21:29;19.20;73.20
41876;DHT22;27555;50.808;4.402;2023-04-03T10:26:41;19.80;72.00
41876;DHT22;27555;50.808;4.402;2023-04-03T10:31:54;20.60;70.90
41876;DHT22;27555;50.808;4.402;2023-04-03T10:34:33;20.20;70.90
41876;DHT22;27555;50.808;4.402;2023-04-03T10:45:27;19.80;70.10
41876;DHT22;27555;50.808;4.402;2023-04-03T10:48:13;19.40;69.60
41876;DHT22;27555;50.808;4.402;2023-04-03T10:50:58;19.60;67.90
41876;DHT22;27555;50.808;4.402;2023-04-03T10:53:41;20.00;68.30
41876;DHT22;27555;50.808;4.402;2023-04-03T10:58:53;20.10;67.20
41876;DHT22;27555;50.808;4.402;2023-04-03T11:01:30;19.70;66.70
41876;DHT22;27555;50.808;4.402;2023-04-03T11:03:59;19.70;67.00
41876;DHT22;27555;50.808;4.402;2023-04-03T11:06:33;19.20;66.20
41876;DHT22;27555;50.808;4.402;2023-04-03T11:09:23;19.40;67.10
41876;DHT22;27555;50.808;4.402;2023-04-03T11:11:55;19.60;66.40
41876;DHT22;27555;50.808;4.402;2023-04-03T11:14:32;20.00;66.20
41876;DHT22;27555;50.808;4.402;2023-04-03T11:22:47;19.90;67.40
41876;DHT22;27555;50.808;4.402;2023-04-03T11:25:19;19.00;67.60
41876;DHT22;27555;50.808;4.402;2023-04-03T11:27:57;18.80;67.00
41876;DHT22;27555;50.808;4.402;2023-04-03T11:30:39;19.90;67.10
41876;DHT22;27555;50.808;4.402;2023-04-03T11:36:11;20.30;65.10
41876;DHT22;27555;50.808;4.402;2023-04-03T11:38:42;19.60;63.70
41876;DHT22;27555;50.808;4.402;2023-04-03T11:41:09;18.90;65.40
41876;DHT22;27555;50.808;4.402;2023-04-03T11:43:56;18.80;66.20
41876;DHT22;27555;50.808;4.402;2023-04-03T11:46:22;19.20;65.70
41876;DHT22;27555;50.808;4.402;2023-04-03T11:48:49;19.00;65.40
41876;DHT22;27555;50.808;4.402;2023-04-03T11:53:46;19.10;64.30
41876;DHT22;27555;50.808;4.402;2023-04-03T12:01:50;19.30;65.80
41876;DHT22;27555;50.808;4.402;2023-04-03T12:04:19;19.60;64.80
41876;DHT22;27555;50.808;4.402;2023-04-03T12:09:54;18.90;64.60
41876;DHT22;27555;50.808;4.402;2023-04-03T12:12:31;18.40;65.50
41876;DHT22;27555;50.808;4.402;2023-04-03T12:17:43;19.00;63.30
41876;DHT22;27555;50.808;4.402;2023-04-03T12:20:51;18.80;62.30
41876;DHT22;27555;50.808;4.402;2023-04-03T12:23:24;18.20;62.70
41876;DHT22;27555;50.808;4.402;2023-04-03T12:25:51;18.00;63.30
41876;DHT22;27555;50.808;4.402;2023-04-03T12:28:17;17.40;63.00
41876;DHT22;27555;50.808;4.402;2023-04-03T12:30:43;17.10;63.60
41876;DHT22;27555;50.808;4.402;2023-04-03T12:33:23;17.00;64.00
41876;DHT22;27555;50.808;4.402;2023-04-03T12:38:51;16.80;64.40
41876;DHT22;27555;50.808;4.402;2023-04-03T12:41:38;16.00;63.90
41876;DHT22;27555;50.808;4.402;2023-04-03T12:46:52;13.30;66.80
41876;DHT22;27555;50.808;4.402;2023-04-03T12:49:37;12.90;67.70
41876;DHT22;27555;50.808;4.402;2023-04-03T12:54:45;12.40;67.20
41876;DHT22;27555;50.808;4.402;2023-04-03T12:57:24;12.00;67.80
41876;DHT22;27555;50.808;4.402;2023-04-03T12:59:51;11.80;68.00
41876;DHT22;27555;50.808;4.402;2023-04-03T13:02:27;11.70;68.40
41876;DHT22;27555;50.808;4.402;2023-04-03T13:04:56;11.60;69.80
41876;DHT22;27555;50.808;4.402;2023-04-03T13:07:34;11.60;69.60
41876;DHT22;27555;50.808;4.402;2023-04-03T13:12:45;11.70;68.60
41876;DHT22;27555;50.808;4.402;2023-04-03T13:15:26;11.60;68.30
41876;DHT22;27555;50.808;4.402;2023-04-03T13:17:53;11.60;68.20
41876;DHT22;27555;50.808;4.402;2023-04-03T13:20:21;11.70;67.70
41876;DHT22;27555;50.808;4.402;2023-04-03T13:23:03;11.70;67.40
41876;DHT22;27555;50.808;4.402;2023-04-03T13:25:34;11.80;67.00
41876;DHT22;27555;50.808;4.402;2023-04-03T13:28:02;11.90;67.00
41876;DHT22;27555;50.808;4.402;2023-04-03T13:30:31;11.80;68.00
41876;DHT22;27555;50.808;4.402;2023-04-03T13:33:01;12.00;66.20
41876;DHT22;27555;50.808;4.402;2023-04-03T13:35:40;11.90;67.50
41876;DHT22;27555;50.808;4.402;2023-04-03T13:40:53;12.20;66.10
41876;DHT22;27555;50.808;4.402;2023-04-03T13:43:25;11.90;66.60
41876;DHT22;27555;50.808;4.402;2023-04-03T13:46:20;11.70;67.80
41876;DHT22;27555;50.808;4.402;2023-04-03T13:48:50;11.60;67.90
41876;DHT22;27555;50.808;4.402;2023-04-03T13:51:20;11.50;66.90
41876;DHT22;27555;50.808;4.402;2023-04-03T13:54:10;11.70;66.90
41876;DHT22;27555;50.808;4.402;2023-04-03T13:56:39;11.60;67.70
41876;DHT22;27555;50.808;4.402;2023-04-03T14:02:29;12.10;67.80
41876;DHT22;27555;50.808;4.402;2023-04-03T14:04:47;11.90;66.10
41876;DHT22;27555;50.808;4.402;2023-04-03T14:07:15;11.40;67.90
41876;DHT22;27555;50.808;4.402;2023-04-03T14:09:41;11.10;68.40
41876;DHT22;27555;50.808;4.402;2023-04-03T14:12:32;11.20;69.30
41876;DHT22;27555;50.808;4.402;2023-04-03T14:15:06;11.30;69.40
41876;DHT22;27555;50.808;4.402;2023-04-03T14:17:36;11.70;70.20
41876;DHT22;27555;50.808;4.402;2023-04-03T14:20:03;11.90;69.90
41876;DHT22;27555;50.808;4.402;2023-04-03T14:22:31;11.70;70.10
41876;DHT22;27555;50.808;4.402;2023-04-03T14:24:57;11.70;69.80
41876;DHT22;27555;50.808;4.402;2023-04-03T14:27:38;11.50;68.40
41876;DHT22;27555;50.808;4.402;2023-04-03T14:30:06;11.40;68.80
41876;DHT22;27555;50.808;4.402;2023-04-03T14:32:33;11.70;68.50
41876;DHT22;27555;50.808;4.402;2023-04-03T14:34:59;11.70;68.70
41876;DHT22;27555;50.808;4.402;2023-04-03T14:37:27;11.70;69.30
41876;DHT22;27555;50.808;4.402;2023-04-03T14:39:56;11.70;67.60
41876;DHT22;27555;50.808;4.402;2023-04-03T14:42:25;11.60;68.20
41876;DHT22;27555;50.808;4.402;2023-04-03T14:44:52;11.70;66.70
41876;DHT22;27555;50.808;4.402;2023-04-03T14:47:23;11.70;67.00
41876;DHT22;27555;50.808;4.402;2023-04-03T14:49:49;11.70;67.50
41876;DHT22;27555;50.808;4.402;2023-04-03T14:52:24;11.70;67.00
41876;DHT22;27555;50.808;4.402;2023-04-03T14:54:51;11.60;68.00
41876;DHT22;27555;50.808;4.402;2023-04-03T14:57:18;11.60;66.70
41876;DHT22;27555;50.808;4.402;2023-04-03T14:59:45;11.40;66.80
41876;DHT22;27555;50.808;4.402;2023-04-03T15:02:32;11.40;66.50
41876;DHT22;27555;50.808;4.402;2023-04-03T15:04:59;11.40;66.20
41876;DHT22;27555;50.808;4.402;2023-04-03T15:07:27;11.80;66.40
41876;DHT22;27555;50.808;4.402;2023-04-03T15:09:54;12.10;66.30
41876;DHT22;27555;50.808;4.402;2023-04-03T15:12:22;11.90;66.60
41876;DHT22;27555;50.808;4.402;2023-04-03T15:14:48;12.20;67.20
41876;DHT22;27555;50.808;4.402;2023-04-03T15:17:16;12.30;66.40
41876;DHT22;27555;50.808;4.402;2023-04-03T15:19:43;12.30;67.00
41876;DHT22;27555;50.808;4.402;2023-04-03T15:22:17;12.10;66.50
41876;DHT22;27555;50.808;4.402;2023-04-03T15:24:43;11.90;67.60
41876;DHT22;27555;50.808;4.402;2023-04-03T15:27:09;11.70;68.00
41876;DHT22;27555;50.808;4.402;2023-04-03T15:29:35;11.60;68.60
41876;DHT22;27555;50.808;4.402;2023-04-03T15:32:01;11.60;69.00
41876;DHT22;27555;50.808;4.402;2023-04-03T15:34:28;11.50;69.40
41876;DHT22;27555;50.808;4.402;2023-04-03T15:36:54;11.80;68.70
41876;DHT22;27555;50.808;4.402;2023-04-03T15:39:20;11.90;69.00
41876;DHT22;27555;50.808;4.402;2023-04-03T15:41:46;11.90;68.70
41876;DHT22;27555;50.808;4.402;2023-04-03T15:44:12;11.70;69.40
41876;DHT22;27555;50.808;4.402;2023-04-03T15:46:38;11.60;69.60
41876;DHT22;27555;50.808;4.402;2023-04-03T15:49:05;11.40;70.00
41876;DHT22;27555;50.808;4.402;2023-04-03T15:51:31;11.30;70.70
41876;DHT22;27555;50.808;4.402;2023-04-03T15:53:56;11.30;71.20
41876;DHT22;27555;50.808;4.402;2023-04-03T15:56:22;11.60;70.50
41876;DHT22;27555;50.808;4.402;2023-04-03T15:58:48;11.80;70.30
41876;DHT22;27555;50.808;4.402;2023-04-03T16:01:14;11.80;70.00
41876;DHT22;27555;50.808;4.402;2023-04-03T16:03:41;11.80;70.00
41876;DHT22;27555;50.808;4.402;2023-04-03T16:06:15;11.20;70.20
41876;DHT22;27555;50.808;4.402;2023-04-03T16:08:42;11.40;71.60
41876;DHT22;27555;50.808;4.402;2023-04-03T16:11:08;11.10;72.60
41876;DHT22;27555;50.808;4.402;2023-04-03T16:13:34;11.00;72.30
41876;DHT22;27555;50.808;4.402;2023-04-03T16:16:01;11.00;72.90
41876;DHT22;27555;50.808;4.402;2023-04-03T16:18:28;11.00;72.80
41876;DHT22;27555;50.808;4.402;2023-04-03T16:20:54;11.00;71.60
41876;DHT22;27555;50.808;4.402;2023-04-03T16:23:20;11.20;72.20
41876;DHT22;27555;50.808;4.402;2023-04-03T16:25:46;11.40;72.20
41876;DHT22;27555;50.808;4.402;2023-04-03T16:28:15;11.40;72.30
41876;DHT22;27555;50.808;4.402;2023-04-03T16:30:42;11.10;72.50
41876;DHT22;27555;50.808;4.402;2023-04-03T16:33:09;10.80;73.50
41876;DHT22;27555;50.808;4.402;2023-04-03T16:35:35;10.80;74.10
41876;DHT22;27555;50.808;4.402;2023-04-03T16:38:01;10.90;73.50
41876;DHT22;27555;50.808;4.402;2023-04-03T16:40:27;10.80;74.40
41876;DHT22;27555;50.808;4.402;2023-04-03T16:42:53;10.80;74.70
41876;DHT22;27555;50.808;4.402;2023-04-03T16:45:18;10.70;74.50
41876;DHT22;27555;50.808;4.402;2023-04-03T16:47:44;10.40;75.60
41876;DHT22;27555;50.808;4.402;2023-04-03T16:50:09;10.30;75.50
41876;DHT22;27555;50.808;4.402;2023-04-03T16:52:35;10.30;77.10
41876;DHT22;27555;50.808;4.402;2023-04-03T16:55:01;10.30;76.80
41876;DHT22;27555;50.808;4.402;2023-04-03T16:57:27;10.40;76.70
41876;DHT22;27555;50.808;4.402;2023-04-03T16:59:53;10.50;76.10
41876;DHT22;27555;50.808;4.402;2023-04-03T17:02:19;10.90;75.50
41876;DHT22;27555;50.808;4.402;2023-04-03T17:04:45;11.10;75.00
41876;DHT22;27555;50.808;4.402;2023-04-03T17:07:11;10.90;74.70
41876;DHT22;27555;50.808;4.402;2023-04-03T17:09:36;10.90;74.90
41876;DHT22;27555;50.808;4.402;2023-04-03T17:12:03;10.90;75.00
41876;DHT22;27555;50.808;4.402;2023-04-03T17:14:29;10.60;75.00